Time,TemperatureF,DewpointF,PressureIn,WindDirection,WindDirectionDegrees,WindSpeedMPH,WindSpeedGustMPH,Humidity,HourlyPrecipIn,Conditions,Clouds,dailyrainin,SoftwareType,DateUTC
2013-08-25 00:09:00,58.2,44.0,29.89,East,79,0.0,0.0,60,0.00,,,0.00,weatherlink.com 1.10,2013-08-25 06:09:00,
2013-08-25 00:24:00,58.1,44.0,29.90,East,79,0.0,0.0,60,0.00,,,0.00,weatherlink.com 1.10,2013-08-25 06:24:00,
2013-08-25 00:39:00,57.4,44.0,29.90,ENE,78,0.0,0.0,61,0.00,,,0.00,weatherlink.com 1.10,2013-08-25 06:39:00,
2013-08-25 00:54:00,56.4,44.0,29.91,ENE,75,0.0,0.0,63,0.00,,,0.00,weatherlink.com 1.10,2013-08-25 06:54:00,
2013-08-25 01:09:00,57.0,45.0,29.91,ENE,67,0.0,0.0,64,0.00,,,0.00,weatherlink.com 1.10,2013-08-25 07:09:00,
2013-08-25 01:24:00,57.7,45.0,29.91,ENE,67,0.0,0.0,63,0.00,,,0.00,weatherlink.com 1.10,2013-08-25 07:24:00,
2013-08-25 01:39:00,57.7,45.0,29.90,East,93,0.0,0.0,63,0.00,,,0.00,weatherlink.com 1.10,2013-08-25 07:39:00,
2013-08-25 01:54:00,57.9,45.0,29.90,East,80,0.0,0.0,62,0.00,,,0.00,weatherlink.com 1.10,2013-08-25 07:54:00,
2013-08-25 02:09:00,56.5,44.0,29.90,East,80,1.0,2.0,64,0.00,,,0.00,weatherlink.com 1.10,2013-08-25 08:09:00,
2013-08-25 02:24:00,56.0,44.0,29.90,East,80,0.0,0.0,65,0.00,,,0.00,weatherlink.com 1.10,2013-08-25 08:24:00,
2013-08-25 02:39:00,55.8,44.0,29.90,East,81,2.0,3.0,66,0.00,,,0.00,weatherlink.com 1.10,2013-08-25 08:39:00,
2013-08-25 02:54:00,55.4,44.0,29.90,East,81,0.0,0.0,66,0.00,,,0.00,weatherlink.com 1.10,2013-08-25 08:54:00,
2013-08-25 03:09:00,54.2,44.0,29.91,East,81,0.0,0.0,68,0.00,,,0.00,weatherlink.com 1.10,2013-08-25 09:09:00,
2013-08-25 03:24:00,54.0,44.0,29.91,East,82,0.0,0.0,69,0.00,,,0.00,weatherlink.com 1.10,2013-08-25 09:24:00,
2013-08-25 03:39:00,54.1,44.0,29.92,East,82,0.0,0.0,69,0.00,,,0.00,weatherlink.com 1.10,2013-08-25 09:39:00,
2013-08-25 03:54:00,54.8,44.0,29.92,East,82,0.0,0.0,67,0.00,,,0.00,weatherlink.com 1.10,2013-08-25 09:54:00,
2013-08-25 04:09:00,54.2,44.0,29.93,East,82,0.0,0.0,68,0.00,,,0.00,weatherlink.com 1.10,2013-08-25 10:09:00,
2013-08-25 04:24:00,54.4,44.0,29.93,East,82,0.0,0.0,69,0.00,,,0.00,weatherlink.com 1.10,2013-08-25 10:24:00,
2013-08-25 04:39:00,55.3,45.0,29.93,East,82,0.0,0.0,68,0.00,,,0.00,weatherlink.com 1.10,2013-08-25 10:39:00,
2013-08-25 04:54:00,55.8,45.0,29.94,WNW,295,0.0,4.0,68,0.00,,,0.00,weatherlink.com 1.10,2013-08-25 10:54:00,
2013-08-25 05:09:00,56.1,46.0,29.94,WNW,295,0.0,1.0,68,0.00,,,0.00,weatherlink.com 1.10,2013-08-25 11:09:00,
2013-08-25 05:24:00,56.5,46.0,29.94,WNW,295,0.0,4.0,68,0.00,,,0.00,weatherlink.com 1.10,2013-08-25 11:24:00,
2013-08-25 05:39:00,56.2,46.0,29.93,WNW,295,0.0,0.0,69,0.00,,,0.00,weatherlink.com 1.10,2013-08-25 11:39:00,
2013-08-25 05:54:00,54.9,45.0,29.93,NW,318,0.0,0.0,69,0.00,,,0.00,weatherlink.com 1.10,2013-08-25 11:54:00,
2013-08-25 06:09:00,54.0,45.0,29.93,NNW,333,0.0,0.0,71,0.00,,,0.00,weatherlink.com 1.10,2013-08-25 12:09:00,
2013-08-25 06:24:00,54.1,45.0,29.94,NNW,342,0.0,0.0,71,0.00,,,0.00,weatherlink.com 1.10,2013-08-25 12:24:00,
2013-08-25 06:39:00,54.3,45.0,29.93,North,349,0.0,0.0,71,0.00,,,0.00,weatherlink.com 1.10,2013-08-25 12:39:00,
2013-08-25 06:54:00,54.6,45.0,29.93,North,354,0.0,0.0,71,0.00,,,0.00,weatherlink.com 1.10,2013-08-25 12:54:00,
2013-08-25 07:09:00,55.0,46.0,29.94,North,353,0.0,0.0,71,0.00,,,0.00,weatherlink.com 1.10,2013-08-25 13:09:00,
2013-08-25 07:24:00,54.7,46.0,29.94,North,353,0.0,0.0,73,0.00,,,0.00,weatherlink.com 1.10,2013-08-25 13:24:00,
2013-08-25 07:39:00,55.1,47.0,29.94,North,353,0.0,0.0,73,0.00,,,0.00,weatherlink.com 1.10,2013-08-25 13:39:00,
2013-08-25 07:54:00,57.4,48.0,29.94,South,183,0.0,0.0,71,0.00,,,0.00,weatherlink.com 1.10,2013-08-25 13:54:00,
2013-08-25 08:09:00,58.1,48.0,29.94,South,183,0.0,0.0,70,0.00,,,0.00,weatherlink.com 1.10,2013-08-25 14:09:00,
2013-08-25 08:25:00,59.2,49.0,29.94,South,182,0.0,0.0,68,0.00,,,0.00,weatherlink.com 1.10,2013-08-25 14:25:00,
2013-08-25 08:40:00,59.8,48.0,29.94,SSW,205,0.0,5.0,66,0.00,,,0.00,weatherlink.com 1.10,2013-08-25 14:40:00,
2013-08-25 08:55:00,59.9,48.0,29.94,SSW,197,0.0,0.0,66,0.00,,,0.00,weatherlink.com 1.10,2013-08-25 14:55:00,
2013-08-25 09:10:00,60.5,49.0,29.94,SSW,197,0.0,0.0,65,0.00,,,0.00,weatherlink.com 1.10,2013-08-25 15:10:00,
2013-08-25 09:25:00,61.1,48.0,29.94,SSW,197,0.0,0.0,62,0.00,,,0.00,weatherlink.com 1.10,2013-08-25 15:25:00,
2013-08-25 09:40:00,61.8,48.0,29.94,SSW,197,0.0,0.0,62,0.00,,,0.00,weatherlink.com 1.10,2013-08-25 15:40:00,
2013-08-25 09:55:00,62.3,48.0,29.94,SSW,197,0.0,0.0,61,0.00,,,0.00,weatherlink.com 1.10,2013-08-25 15:55:00,
2013-08-25 10:10:00,62.6,48.0,29.94,SSW,197,0.0,0.0,60,0.00,,,0.00,weatherlink.com 1.10,2013-08-25 16:10:00,
2013-08-25 10:25:00,64.0,50.0,29.93,SSW,197,0.0,0.0,60,0.00,,,0.00,weatherlink.com 1.10,2013-08-25 16:25:00,
2013-08-25 10:40:00,66.4,49.0,29.93,SSW,197,0.0,6.0,53,0.00,,,0.00,weatherlink.com 1.10,2013-08-25 16:40:00,
2013-08-25 10:55:00,68.6,50.0,29.93,SSW,200,0.0,3.0,51,0.00,,,0.00,weatherlink.com 1.10,2013-08-25 16:55:00,
2013-08-25 11:10:00,68.5,48.0,29.92,SSW,208,0.0,2.0,49,0.00,,,0.00,weatherlink.com 1.10,2013-08-25 17:10:00,
2013-08-25 11:25:00,69.8,49.0,29.92,WNW,284,0.0,3.0,47,0.00,,,0.00,weatherlink.com 1.10,2013-08-25 17:25:00,
2013-08-25 11:40:00,69.3,48.0,29.92,SW,233,1.0,6.0,47,0.00,,,0.00,weatherlink.com 1.10,2013-08-25 17:40:00,
2013-08-25 11:55:00,69.3,48.0,29.91,SW,221,0.0,6.0,47,0.00,,,0.00,weatherlink.com 1.10,2013-08-25 17:55:00,
2013-08-25 12:10:00,70.8,48.0,29.91,SW,215,5.0,8.0,45,0.00,,,0.00,weatherlink.com 1.10,2013-08-25 18:10:00,
2013-08-25 12:25:00,71.3,49.0,29.90,South,183,4.0,9.0,46,0.00,,,0.00,weatherlink.com 1.10,2013-08-25 18:25:00,
2013-08-25 12:40:00,71.2,49.0,29.89,WSW,243,0.0,7.0,45,0.00,,,0.00,weatherlink.com 1.10,2013-08-25 18:40:00,
2013-08-25 12:55:00,72.0,49.0,29.89,SSW,201,0.0,7.0,45,0.00,,,0.00,weatherlink.com 1.10,2013-08-25 18:55:00,
2013-08-25 13:10:00,70.9,49.0,29.89,SSW,212,5.0,9.0,46,0.00,,,0.00,weatherlink.com 1.10,2013-08-25 19:10:00,
2013-08-25 13:25:00,70.6,50.0,29.88,WSW,256,3.0,7.0,48,0.00,,,0.00,weatherlink.com 1.10,2013-08-25 19:25:00,
2013-08-25 13:40:00,70.2,50.0,29.88,West,278,7.0,16.0,49,0.00,,,0.00,weatherlink.com 1.10,2013-08-25 19:40:00,
2013-08-25 13:55:00,67.9,52.0,29.88,NW,304,9.0,22.0,57,0.00,,,0.00,weatherlink.com 1.10,2013-08-25 19:55:00,
2013-08-25 14:10:00,64.4,52.0,29.89,WNW,288,5.0,24.0,64,0.00,,,0.00,weatherlink.com 1.10,2013-08-25 20:10:00,
2013-08-25 14:25:00,61.1,54.0,29.91,West,262,8.0,15.0,76,0.00,,,0.00,weatherlink.com 1.10,2013-08-25 20:25:00,
2013-08-25 14:40:00,58.7,54.0,29.91,WNW,285,7.0,11.0,85,0.02,,,0.02,weatherlink.com 1.10,2013-08-25 20:40:00,
2013-08-25 14:55:00,59.6,56.0,29.90,NW,309,8.0,9.0,89,0.03,,,0.03,weatherlink.com 1.10,2013-08-25 20:55:00,
2013-08-25 15:11:00,61.5,58.0,29.89,WNW,295,8.0,11.0,87,0.03,,,0.03,weatherlink.com 1.10,2013-08-25 21:11:00,
2013-08-25 15:26:00,62.4,58.0,29.89,WNW,287,0.0,8.0,84,0.03,,,0.03,weatherlink.com 1.10,2013-08-25 21:26:00,
2013-08-25 15:41:00,62.5,57.0,29.89,West,267,4.0,8.0,81,0.01,,,0.03,weatherlink.com 1.10,2013-08-25 21:41:00,
2013-08-25 15:56:00,61.8,56.0,29.89,West,274,9.0,11.0,80,0.00,,,0.03,weatherlink.com 1.10,2013-08-25 21:56:00,
2013-08-25 16:11:00,62.2,56.0,29.89,WNW,287,1.0,7.0,80,0.00,,,0.03,weatherlink.com 1.10,2013-08-25 22:11:00,
2013-08-25 16:26:00,66.4,56.0,29.88,West,281,0.0,9.0,69,0.00,,,0.03,weatherlink.com 1.10,2013-08-25 22:26:00,
2013-08-25 16:41:00,67.3,54.0,29.87,WNW,284,0.0,3.0,63,0.00,,,0.03,weatherlink.com 1.10,2013-08-25 22:41:00,
2013-08-25 16:56:00,66.6,56.0,29.87,ENE,77,0.0,2.0,69,0.00,,,0.03,weatherlink.com 1.10,2013-08-25 22:56:00,
2013-08-25 17:11:00,65.2,55.0,29.87,ESE,122,0.0,2.0,70,0.00,,,0.03,weatherlink.com 1.10,2013-08-25 23:11:00,
2013-08-25 17:26:00,65.8,55.0,29.87,SW,217,1.0,3.0,68,0.00,,,0.03,weatherlink.com 1.10,2013-08-25 23:26:00,
2013-08-25 17:41:00,65.6,55.0,29.88,SW,226,3.0,6.0,68,0.00,,,0.03,weatherlink.com 1.10,2013-08-25 23:41:00,
2013-08-25 17:56:00,64.0,54.0,29.88,SW,223,2.0,5.0,71,0.00,,,0.03,weatherlink.com 1.10,2013-08-25 23:56:00,
2013-08-25 18:11:00,63.2,54.0,29.88,SW,221,0.0,0.0,73,0.00,,,0.03,weatherlink.com 1.10,2013-08-26 00:11:00,
2013-08-25 18:26:00,62.5,54.0,29.88,West,274,0.0,6.0,74,0.00,,,0.03,weatherlink.com 1.10,2013-08-26 00:26:00,
2013-08-25 18:41:00,61.6,54.0,29.88,West,274,0.0,0.0,75,0.00,,,0.03,weatherlink.com 1.10,2013-08-26 00:41:00,
2013-08-25 18:56:00,61.1,54.0,29.88,West,274,0.0,0.0,78,0.00,,,0.03,weatherlink.com 1.10,2013-08-26 00:56:00,
2013-08-25 19:11:00,60.3,54.0,29.88,West,274,0.0,0.0,80,0.00,,,0.03,weatherlink.com 1.10,2013-08-26 01:11:00,
2013-08-25 19:26:00,59.9,54.0,29.88,West,274,0.0,0.0,80,0.00,,,0.03,weatherlink.com 1.10,2013-08-26 01:26:00,
2013-08-25 19:41:00,59.7,54.0,29.89,West,274,0.0,0.0,82,0.00,,,0.03,weatherlink.com 1.10,2013-08-26 01:41:00,
2013-08-25 19:56:00,59.4,55.0,29.90,West,277,0.0,1.0,84,0.01,,,0.04,weatherlink.com 1.10,2013-08-26 01:56:00,
2013-08-25 20:12:00,58.3,54.0,29.91,West,277,0.0,0.0,85,0.01,,,0.04,weatherlink.com 1.10,2013-08-26 02:12:00,
2013-08-25 20:26:00,58.1,54.0,29.92,West,277,0.0,0.0,87,0.01,,,0.04,weatherlink.com 1.10,2013-08-26 02:26:00,
2013-08-25 20:41:00,57.5,54.0,29.92,West,277,0.0,6.0,89,0.01,,,0.04,weatherlink.com 1.10,2013-08-26 02:41:00,
2013-08-25 20:56:00,56.5,54.0,29.93,West,277,0.0,0.0,90,0.00,,,0.04,weatherlink.com 1.10,2013-08-26 02:56:00,
2013-08-25 21:11:00,56.6,54.0,29.94,West,277,0.0,0.0,92,0.00,,,0.04,weatherlink.com 1.10,2013-08-26 03:11:00,
2013-08-25 21:26:00,56.6,54.0,29.94,West,277,0.0,0.0,92,0.00,,,0.04,weatherlink.com 1.10,2013-08-26 03:26:00,
2013-08-25 21:41:00,56.7,54.0,29.94,West,277,0.0,0.0,91,0.00,,,0.04,weatherlink.com 1.10,2013-08-26 03:41:00,
2013-08-25 21:56:00,56.9,54.0,29.94,West,277,0.0,0.0,90,0.01,,,0.05,weatherlink.com 1.10,2013-08-26 03:56:00,
2013-08-25 22:11:00,56.2,54.0,29.95,West,277,0.0,0.0,91,0.02,,,0.06,weatherlink.com 1.10,2013-08-26 04:11:00,
2013-08-25 22:26:00,56.1,54.0,29.95,West,277,0.0,0.0,92,0.03,,,0.07,weatherlink.com 1.10,2013-08-26 04:26:00,
2013-08-25 22:41:00,56.0,54.0,29.95,West,277,0.0,0.0,92,0.03,,,0.07,weatherlink.com 1.10,2013-08-26 04:41:00,
2013-08-25 22:56:00,55.8,54.0,29.95,West,277,0.0,0.0,92,0.03,,,0.08,weatherlink.com 1.10,2013-08-26 04:56:00,
2013-08-25 23:11:00,55.3,53.0,29.96,West,277,0.0,0.0,93,0.02,,,0.08,weatherlink.com 1.10,2013-08-26 05:11:00,
2013-08-25 23:26:00,55.4,54.0,29.96,West,277,0.0,0.0,94,0.01,,,0.08,weatherlink.com 1.10,2013-08-26 05:26:00,
2013-08-25 23:41:00,55.3,54.0,29.96,West,277,0.0,0.0,94,0.01,,,0.08,weatherlink.com 1.10,2013-08-26 05:41:00,
2013-08-25 23:56:00,55.1,54.0,29.95,West,277,0.0,0.0,94,0.00,,,0.08,weatherlink.com 1.10,2013-08-26 05:56:00,